Latest Weather Observations for Eliwana Airport

IDW60801

Issued at 4:23 pm WST Thursday 18 August 2022 (issued every 10 minutes, with the page automatically refreshed every 10 minutes)

About weather observations | Map of weather stations | Latest weather observations for WA | Other Formats
Station Details ID: 505063 Name: ELIWANA AIRPORT Lat: -22.43 Lon: 116.89 Height: 481.07 m
Data from the previous 72 hours. | See also: Recent months for locations in Western Australia
Date/Time
WST
Temp
°C
App
Temp
°C
Dew
Point
°C
Rel
Hum
%
Delta-T
°C
Wind Press
QNH
hPa
Press
MSL
hPa
Rain since
9am
mm
Dir  Spd
km/h
Gust
km/h
Spd
kts
Gust
kts
18/04:00pm 27.6 22.3 1.9 19 12.7 ESE 19 28 10 15 1018.7 - 0.0
18/03:30pm 27.2 22.5 3.0 21 12.2 SE 17 26 9 14 1018.7 - 0.0
18/03:00pm 26.5 21.9 3.7 23 11.6 ESE 17 28 9 15 1018.6 - 0.0
18/02:30pm 26.2 21.6 3.5 23 11.5 SE 17 26 9 14 1018.9 - 0.0
18/02:00pm 25.8 21.7 4.3 25 11.0 ESE 15 24 8 13 1019.2 - 0.0
18/01:30pm 25.0 20.7 5.2 28 10.3 E 17 24 9 13 1019.5 - 0.0
18/01:00pm 24.0 19.7 5.4 30 9.6 ESE 17 24 9 13 1020.0 - 0.0
18/12:30pm 23.4 18.5 5.3 31 9.3 E 20 32 11 17 1020.4 - 0.0
18/12:00pm 22.5 17.8 5.9 34 8.6 E 20 28 11 15 1020.7 - 0.0
18/11:30am 21.8 17.4 6.5 37 8.0 ESE 19 30 10 16 1021.3 - 0.0
18/11:00am 20.0 15.6 7.4 44 6.6 ESE 20 28 11 15 1021.8 - 0.0
18/10:30am 18.8 13.7 7.6 48 5.8 ESE 24 32 13 17 1022.2 - 0.0
18/10:00am 18.6 12.7 7.7 49 5.7 ESE 28 39 15 21 1022.3 - 0.0
18/09:30am 17.3 11.6 8.4 56 4.7 ESE 28 41 15 22 1022.2 - 0.0
18/09:00am 16.7 10.3 8.7 59 4.2 ESE 32 44 17 24 1022.1 - 0.0
18/08:30am 15.6 9.1 8.8 64 3.6 ESE 33 44 18 24 1022.1 - 0.0
18/08:00am 15.1 9.9 8.8 66 3.3 ESE 26 37 14 20 1021.9 - 0.0
18/07:30am 14.3 8.6 8.5 68 3.0 SE 28 35 15 19 1021.5 - 0.0
18/07:00am 13.8 9.5 8.0 68 2.9 ESE 20 33 11 18 1021.3 - 0.0
18/06:30am 14.0 9.3 7.8 66 3.1 SE 22 35 12 19 1020.8 - 0.0
18/06:00am 14.1 9.9 7.6 65 3.3 SE 19 22 10 12 1020.7 - 0.0
18/05:30am 14.5 10.6 7.3 62 3.6 SE 17 26 9 14 1020.4 - 0.0
18/05:00am 14.7 10.8 7.3 61 3.7 SE 17 28 9 15 1019.9 - 0.0
18/04:30am 14.5 11.4 7.3 62 3.6 SSE 13 19 7 10 1019.8 - 0.0
18/04:00am 15.0 11.6 7.5 61 3.8 SE 15 19 8 10 1019.9 - 0.0
18/03:30am 15.3 11.9 7.6 60 3.9 SE 15 22 8 12 1019.9 - 0.0
18/03:00am 15.7 11.9 7.5 58 4.2 SE 17 20 9 11 1019.8 - 0.0
18/02:30am 16.1 12.2 7.3 56 4.5 SE 17 28 9 15 1019.9 - 0.0
18/02:00am 16.6 12.3 7.0 53 4.9 SSE 19 24 10 13 1020.0 - 0.0
18/01:30am 15.8 12.5 6.5 54 4.7 SSE 13 17 7 9 1020.2 - 0.0
18/01:00am 16.8 13.0 6.0 49 5.4 SSE 15 22 8 12 1020.4 - 0.0
18/12:30am 16.8 13.4 6.0 49 5.4 SSE 13 19 7 10 1020.5 - 0.0
18/12:00am 17.0 13.2 5.9 48 5.5 S 15 19 8 10 1020.5 - 0.0
 
Date/Time
WST
Temp
°C
App
Temp
°C
Dew
Point
°C
Rel
Hum
%
Delta-T
°C
Wind Press
QNH
hPa
Press
MSL
hPa
Rain since
9am
mm
Dir  Spd
km/h
Gust
km/h
Spd
kts
Gust
kts
17/11:30pm 17.5 14.1 5.8 46 5.8 S 13 17 7 9 1020.8 - 0.0
17/11:00pm 17.7 14.2 5.6 45 6.0 S 13 17 7 9 1020.9 - 0.0
17/10:30pm 18.1 14.6 5.3 43 6.4 S 13 19 7 10 1020.9 - 0.0
17/10:00pm 18.5 14.9 5.0 41 6.7 S 13 17 7 9 1020.9 - 0.0
17/09:30pm 18.9 14.9 5.0 40 6.9 SSW 15 20 8 11 1020.6 - 0.0
17/09:00pm 19.7 15.3 5.0 38 7.3 SSW 17 24 9 13 1020.5 - 0.0
17/08:30pm 19.6 16.8 5.3 39 7.2 S 9 15 5 8 1020.3 - 0.0
17/08:00pm 20.1 17.4 5.4 38 7.4 SSW 9 19 5 10 1020.0 - 0.0
17/07:30pm 20.1 17.5 6.1 40 7.2 SSW 9 13 5 7 1019.8 - 0.0
17/07:00pm 21.2 18.9 7.4 41 7.3 SW 9 13 5 7 1019.5 - 0.0
17/06:30pm 22.2 19.8 8.7 42 7.3 SW 11 17 6 9 1019.1 - 0.0
17/06:00pm 23.1 19.8 8.0 38 8.1 SW 15 22 8 12 1018.7 - 0.0
17/05:30pm 24.2 21.0 8.6 37 8.5 SW 15 24 8 13 1018.4 - 0.0
17/05:00pm 24.9 21.5 9.2 37 8.7 SW 17 22 9 12 1018.2 - 0.0
17/04:30pm 25.2 23.3 10.6 39 8.3 WSW 11 19 6 10 1018.0 - 0.0
17/04:00pm 25.4 22.3 10.4 39 8.5 WSW 17 33 9 18 1018.0 - 0.0
17/03:30pm 25.5 23.1 11.3 41 8.2 SW 15 30 8 16 1017.9 - 0.0
17/03:00pm 24.9 23.0 11.8 44 7.6 SW 13 24 7 13 1017.9 - 0.0
17/02:30pm 25.1 22.6 12.3 45 7.5 WSW 17 24 9 13 1018.0 - 0.0
17/02:00pm 24.8 22.5 13.0 47 7.0 SW 17 28 9 15 1018.2 - 0.0
17/01:30pm 24.6 22.3 12.9 48 6.9 WSW 17 24 9 13 1018.3 - 0.0
17/01:00pm 24.1 22.4 13.6 52 6.3 SW 15 26 8 14 1018.8 - 0.0
17/12:30pm 24.0 23.7 14.4 55 5.8 W 9 26 5 14 1019.1 - 0.0
17/12:00pm 22.7 22.2 14.8 61 4.8 S 11 20 6 11 1019.6 - 0.0
17/11:30am 21.7 20.8 14.8 65 4.2 SSW 13 22 7 12 1020.1 - 0.0
17/11:00am 21.5 20.5 14.6 65 4.1 SSW 13 20 7 11 1020.4 - 0.0
17/10:30am 20.8 19.5 14.9 69 3.5 SSW 15 20 8 11 1020.8 - 0.0
17/10:00am 20.3 20.2 14.9 71 3.2 SSW 9 19 5 10 1021.1 - 0.0
17/09:46am 20.0 19.7 15.4 75 2.8 SSW 11 17 6 9 1021.1 - 0.0
17/09:30am 19.7 18.6 15.4 76 2.6 SSW 15 20 8 11 1021.0 - 0.0
17/09:00am 18.8 17.2 16.0 84 1.7 S 19 24 10 13 1020.7 - 0.0
17/08:30am 18.4 17.3 16.4 88 1.2 SSW 17 20 9 11 1020.5 - 0.0
17/08:00am 18.7 17.8 16.9 89 1.1 SW 17 20 9 11 1020.0 - 0.0
17/07:32am 18.5 18.5 17.3 93 0.7 SW 13 17 7 9 1019.7 - 0.0
17/07:30am 18.5 18.9 17.3 93 0.7 SW 11 17 6 9 1019.7 - 0.0
17/07:14am 18.4 18.8 17.2 93 0.7 WSW 11 15 6 8 1019.6 - 0.0
17/07:00am 18.8 18.7 16.9 89 1.2 SW 13 19 7 10 1019.5 - 0.0
17/06:30am 19.0 18.5 17.0 88 1.2 SW 15 20 8 11 1019.1 - 0.0
17/06:00am 19.4 18.9 16.8 85 1.6 WSW 15 20 8 11 1018.5 - 0.0
17/05:30am 19.4 20.5 17.0 86 1.5 W 7 13 4 7 1017.9 - 0.0
17/05:00am 19.2 20.5 17.0 87 1.4 NW 6 9 3 5 1017.6 - 0.0
17/04:30am 19.2 20.0 17.2 88 1.2 W 9 15 5 8 1017.4 - 0.0
17/04:00am 18.9 19.9 16.9 88 1.2 WSW 7 9 4 5 1017.3 - 0.0
17/03:31am 18.7 19.3 16.7 88 1.2 WSW 9 11 5 6 1017.3 - 0.0
17/03:30am 18.7 19.3 16.7 88 1.2 WSW 9 11 5 6 1017.3 - 0.0
17/03:15am 18.3 18.8 16.6 90 1.0 W 9 11 5 6 1017.4 - 0.0
17/03:00am 18.1 19.1 16.4 90 1.0 W 6 7 3 4 1017.3 - 0.0
17/02:30am 18.7 19.6 16.7 88 1.2 W 7 9 4 5 1017.4 - 0.0
17/02:00am 19.3 19.9 16.9 86 1.5 W 9 13 5 7 1017.5 - 0.0
17/01:30am 19.8 20.6 17.2 85 1.6 W 9 13 5 7 1017.6 - 0.0
17/01:00am 20.5 22.2 18.6 89 1.2 WNW 7 13 4 7 1017.7 - 0.0
17/12:30am 20.8 22.2 18.7 88 1.3 WNW 9 13 5 7 1017.7 - 0.0
17/12:00am 20.9 21.9 18.7 87 1.4 WNW 11 17 6 9 1017.7 - 0.0
 
Date/Time
WST
Temp
°C
App
Temp
°C
Dew
Point
°C
Rel
Hum
%
Delta-T
°C
Wind Press
QNH
hPa
Press
MSL
hPa
Rain since
9am
mm
Dir  Spd
km/h
Gust
km/h
Spd
kts
Gust
kts
16/11:30pm 21.0 22.2 18.2 84 1.8 WNW 9 17 5 9 1017.6 - 0.0
16/11:00pm 20.8 21.9 16.6 77 2.6 NW 6 9 3 5 1017.6 - 0.0
16/10:30pm 21.3 22.2 16.0 72 3.3 NNW 6 9 3 5 1017.6 - 0.0
16/10:00pm 21.9 22.1 15.7 68 3.8 WNW 9 11 5 6 1017.7 - 0.0
16/09:30pm 22.0 22.3 14.4 62 4.6 WNW 6 7 3 4 1017.7 - 0.0
16/09:00pm 22.8 22.2 13.6 56 5.4 NNW 9 13 5 7 1017.6 - 0.0
16/08:30pm 23.0 22.2 12.9 53 5.9 WNW 9 13 5 7 1017.6 - 0.0
16/08:00pm 24.2 22.2 12.8 49 6.7 WNW 15 19 8 10 1017.4 - 0.0
16/07:30pm 24.9 22.1 11.5 43 7.7 WNW 17 24 9 13 1017.1 - 0.0
16/07:00pm 25.5 22.0 10.1 38 8.7 WNW 19 24 10 13 1016.9 - 0.0
16/06:30pm 26.3 21.7 9.6 35 9.4 WNW 24 33 13 18 1016.5 - 0.0
16/06:00pm 27.0 22.3 10.7 36 9.4 WNW 26 35 14 19 1016.1 - 0.0
16/05:30pm 28.1 23.1 9.4 31 10.6 WNW 26 37 14 20 1015.7 - 0.0
16/05:00pm 28.6 23.1 9.3 30 10.9 WNW 28 39 15 21 1015.5 - 0.0
16/04:30pm 28.7 23.3 9.4 30 11.0 WNW 28 39 15 21 1015.4 - 0.0
16/04:00pm 29.3 23.1 9.4 29 11.3 NW 32 41 17 22 1015.3 - 0.0
16/03:30pm 30.0 24.1 9.0 27 11.9 NW 30 41 16 22 1015.1 - 0.0
16/03:00pm 30.3 25.0 9.8 28 11.8 NW 28 44 15 24 1015.0 - 0.0
16/02:30pm 30.3 24.3 8.7 26 12.2 NW 30 43 16 23 1015.0 - 0.0
16/02:00pm 30.7 24.5 7.8 24 12.8 NNW 30 43 16 23 1015.3 - 0.0
16/01:38pm 31.0 24.6 6.8 22 13.3 NW 30 48 16 26 1015.2 - 0.0
16/01:30pm 30.9 24.6 7.4 23 13.1 NW 30 43 16 23 1015.3 - 0.0
16/01:02pm 30.5 24.5 7.0 23 13.0 NNW 28 46 15 25 1015.6 - 0.0
16/01:00pm 30.4 23.5 6.3 22 13.1 NNW 32 46 17 25 1015.8 - 0.0
16/12:33pm 30.3 24.3 6.9 23 12.9 NW 28 52 15 28 1015.9 - 0.0
16/12:30pm 30.5 25.2 7.0 23 13.0 WNW 24 37 13 20 1016.0 - 0.0
16/12:00pm 30.0 24.8 7.2 24 12.6 NW 24 39 13 21 1016.3 - 0.0
16/11:30am 29.6 23.7 7.5 25 12.2 NW 28 43 15 23 1016.6 - 0.0
16/11:00am 28.8 22.9 7.4 26 11.8 WNW 28 39 15 21 1017.0 - 0.0
16/10:30am 27.9 22.9 8.2 29 10.9 WNW 24 37 13 20 1017.4 - 0.0
16/10:00am 26.6 22.5 8.6 32 10.0 WNW 20 28 11 15 1017.7 - 0.0
16/09:30am 25.4 21.0 8.8 35 9.2 NW 22 30 12 16 1017.9 - 0.0
16/09:00am 24.2 21.6 9.4 39 8.2 NW 13 24 7 13 1017.9 - 0.0
16/08:30am 21.9 20.8 9.8 46 6.7 WNW 6 7 3 4 1017.8 - 0.0
16/08:00am 20.6 20.1 9.2 48 6.2 SSE 2 4 1 2 1017.5 - 0.0
16/07:30am 18.9 18.1 8.3 50 5.6 ESE 2 4 1 2 1017.3 - 0.0
16/07:00am 16.4 15.2 7.9 57 4.4 WNW 4 6 2 3 1017.0 - 0.0
16/06:30am 17.5 15.3 7.8 53 5.0 W 9 11 5 6 1016.7 - 0.0
16/06:00am 17.7 15.8 7.7 52 5.2 WNW 7 11 4 6 1016.6 - 0.0
16/05:30am 18.9 16.0 8.0 49 5.7 WNW 13 17 7 9 1016.3 - 0.0
16/05:00am 20.1 16.4 7.8 45 6.5 NW 17 22 9 12 1016.2 - 0.0
16/04:30am 20.0 16.5 7.4 44 6.6 WNW 15 19 8 10 1016.1 - 0.0
16/04:00am 19.0 16.2 7.1 46 6.2 WNW 11 17 6 9 1016.1 - 0.0
16/03:30am 18.9 16.4 6.7 45 6.3 WNW 9 13 5 7 1016.1 - 0.0
16/03:00am 19.1 16.7 6.9 45 6.3 WNW 9 11 5 6 1016.3 - 0.0
16/02:30am 19.7 17.3 6.8 43 6.7 WNW 9 11 5 6 1016.6 - 0.0
16/02:00am 19.8 17.8 6.9 43 6.7 W 7 11 4 6 1016.7 - 0.0
16/01:30am 20.2 17.4 6.9 42 6.9 W 11 15 6 8 1016.7 - 0.0
16/01:00am 21.5 19.1 7.0 39 7.6 WNW 9 15 5 8 1016.9 - 0.0
16/12:30am 22.2 20.2 6.4 36 8.2 NW 6 9 3 5 1017.0 - 0.0
16/12:00am 22.6 21.1 6.8 36 8.3 WSW 4 7 2 4 1017.2 - 0.0
 
Date/Time
WST
Temp
°C
App
Temp
°C
Dew
Point
°C
Rel
Hum
%
Delta-T
°C
Wind Press
QNH
hPa
Press
MSL
hPa
Rain since
9am
mm
Dir  Spd
km/h
Gust
km/h
Spd
kts
Gust
kts
15/11:30pm 23.0 21.4 6.3 34 8.7 WNW 4 7 2 4 1017.2 - 0.0
15/11:00pm 22.9 20.8 6.6 35 8.5 NNE 7 11 4 6 1017.1 - 0.0
15/10:30pm 24.5 20.5 6.7 32 9.4 NNW 17 22 9 12 1017.1 - 0.0
15/10:00pm 24.9 20.9 6.6 31 9.7 NNW 17 26 9 14 1017.2 - 0.0
15/09:30pm 25.0 21.5 7.2 32 9.6 NNW 15 22 8 12 1017.3 - 0.0
15/09:00pm 25.4 21.7 8.0 33 9.5 NNW 17 28 9 15 1017.2 - 0.0
15/08:30pm 25.5 21.8 8.1 33 9.5 NNW 17 26 9 14 1017.1 - 0.0
15/08:00pm 26.2 22.0 8.2 32 9.9 NNW 20 33 11 18 1016.9 - 0.0
15/07:30pm 26.3 23.1 8.3 32 9.9 NNW 15 19 8 10 1016.4 - 0.0
15/07:00pm 26.9 23.7 8.4 31 10.2 NNW 15 20 8 11 1015.9 - 0.0
15/06:30pm 27.7 24.2 8.6 30 10.7 NNW 17 20 9 11 1015.5 - 0.0
15/06:00pm 28.2 25.0 8.5 29 11.0 NNW 15 22 8 12 1015.3 - 0.0
15/05:30pm 29.1 25.2 8.7 28 11.5 NNW 19 28 10 15 1015.2 - 0.0
15/05:00pm 29.6 24.7 8.6 27 11.8 NNW 24 33 13 18 1015.0 - 0.0
15/04:30pm 29.9 24.7 8.9 27 11.9 N 26 35 14 19 1014.8 - 0.0

Other formats

Comma delimited format used in spreadsheet applications
http://www.bom.gov.au/fwo/IDW60801/IDW60801.99593.axf

JavaScript Object Notation format (JSON) in row-major order
http://www.bom.gov.au/fwo/IDW60801/IDW60801.99593.json

Data quality

Most of these data are generated automatically and are frequently updated. Quality checks on data are not normally performed. It is possible for incorrect values to appear. Refer to information at About Latest Weather Observations and please check the disclaimer before using these data.